sensor_id;sensor_type;location;lat;lon;timestamp;pressure;altitude;pressure_sealevel;temperature;humidity
71126;BME280;58785;55.566;38.058;2023-07-20T00:01:07;98910.91;;;14.07;78.77
71126;BME280;58785;55.566;38.058;2023-07-20T00:03:33;98912.34;;;14.09;78.59
71126;BME280;58785;55.566;38.058;2023-07-20T00:05:58;98910.09;;;14.06;78.91
71126;BME280;58785;55.566;38.058;2023-07-20T00:08:24;98907.19;;;14.08;78.95
71126;BME280;58785;55.566;38.058;2023-07-20T00:10:50;98910.91;;;14.07;79.00
71126;BME280;58785;55.566;38.058;2023-07-20T00:13:16;98900.16;;;14.00;78.78
71126;BME280;58785;55.566;38.058;2023-07-20T00:15:44;98914.00;;;14.04;78.85
71126;BME280;58785;55.566;38.058;2023-07-20T00:18:10;98914.16;;;14.02;78.89
71126;BME280;58785;55.566;38.058;2023-07-20T00:20:35;98921.22;;;14.03;79.12
71126;BME280;58785;55.566;38.058;2023-07-20T00:23:01;98917.69;;;14.03;79.05
71126;BME280;58785;55.566;38.058;2023-07-20T00:25:27;98917.06;;;14.01;78.93
71126;BME280;58785;55.566;38.058;2023-07-20T00:27:53;98915.81;;;13.97;79.25
71126;BME280;58785;55.566;38.058;2023-07-20T00:30:18;98918.28;;;13.98;79.21
71126;BME280;58785;55.566;38.058;2023-07-20T00:32:44;98908.75;;;13.89;79.12
71126;BME280;58785;55.566;38.058;2023-07-20T00:35:11;98912.72;;;13.93;79.26
71126;BME280;58785;55.566;38.058;2023-07-20T00:37:38;98922.81;;;13.98;79.51
71126;BME280;58785;55.566;38.058;2023-07-20T00:40:04;98922.00;;;13.97;79.07
71126;BME280;58785;55.566;38.058;2023-07-20T00:42:31;98921.59;;;14.00;79.32
71126;BME280;58785;55.566;38.058;2023-07-20T00:44:56;98934.41;;;14.05;79.23
71126;BME280;58785;55.566;38.058;2023-07-20T00:47:22;98919.53;;;14.02;79.42
71126;BME280;58785;55.566;38.058;2023-07-20T00:49:48;98932.34;;;14.07;79.16
71126;BME280;58785;55.566;38.058;2023-07-20T00:52:14;98927.41;;;14.04;79.12
71126;BME280;58785;55.566;38.058;2023-07-20T00:54:41;98938.94;;;14.04;79.47
71126;BME280;58785;55.566;38.058;2023-07-20T00:57:07;98935.81;;;14.01;79.02
71126;BME280;58785;55.566;38.058;2023-07-20T00:59:36;98927.56;;;13.96;79.07
71126;BME280;58785;55.566;38.058;2023-07-20T01:02:02;98935.19;;;13.99;79.44
71126;BME280;58785;55.566;38.058;2023-07-20T01:04:28;98932.91;;;13.96;79.54
71126;BME280;58785;55.566;38.058;2023-07-20T01:07:01;98929.78;;;13.92;79.23
71126;BME280;58785;55.566;38.058;2023-07-20T01:10:22;98930.38;;;13.88;79.52
71126;BME280;58785;55.566;38.058;2023-07-20T01:12:34;98925.81;;;13.81;79.54
71126;BME280;58785;55.566;38.058;2023-07-20T01:15:01;98931.00;;;13.83;79.47
71126;BME280;58785;55.566;38.058;2023-07-20T01:17:27;98925.59;;;13.76;79.47
71126;BME280;58785;55.566;38.058;2023-07-20T01:19:52;98922.50;;;13.79;79.25
71126;BME280;58785;55.566;38.058;2023-07-20T01:22:55;98926.63;;;13.82;79.29
71126;BME280;58785;55.566;38.058;2023-07-20T01:30:55;98926.63;;;13.75;79.34
71126;BME280;58785;55.566;38.058;2023-07-20T01:33:25;98930.31;;;13.74;79.34
71126;BME280;58785;55.566;38.058;2023-07-20T01:35:55;98940.03;;;13.82;79.79
71126;BME280;58785;55.566;38.058;2023-07-20T01:38:23;98947.69;;;13.85;79.49
71126;BME280;58785;55.566;38.058;2023-07-20T01:40:50;98945.84;;;13.86;79.70
71126;BME280;58785;55.566;38.058;2023-07-20T01:43:17;98947.50;;;13.87;79.40
71126;BME280;58785;55.566;38.058;2023-07-20T01:45:43;98935.94;;;13.86;79.37
71126;BME280;58785;55.566;38.058;2023-07-20T01:48:09;98948.13;;;13.89;79.29
71126;BME280;58785;55.566;38.058;2023-07-20T01:50:35;98948.31;;;13.87;79.22
71126;BME280;58785;55.566;38.058;2023-07-20T01:53:01;98944.41;;;13.90;79.35
71126;BME280;58785;55.566;38.058;2023-07-20T01:55:27;98930.81;;;13.91;79.32
71126;BME280;58785;55.566;38.058;2023-07-20T01:57:54;98945.50;;;13.95;79.44
71126;BME280;58785;55.566;38.058;2023-07-20T02:00:20;98926.09;;;13.93;79.33
71126;BME280;58785;55.566;38.058;2023-07-20T02:02:49;98940.78;;;14.04;79.26
71126;BME280;58785;55.566;38.058;2023-07-20T02:05:16;98942.03;;;14.08;79.15
71126;BME280;58785;55.566;38.058;2023-07-20T02:07:42;98947.19;;;14.09;79.29
71126;BME280;58785;55.566;38.058;2023-07-20T02:10:08;98947.03;;;14.18;78.81
71126;BME280;58785;55.566;38.058;2023-07-20T02:12:35;98947.09;;;14.24;78.62
71126;BME280;58785;55.566;38.058;2023-07-20T02:15:02;98944.81;;;14.28;78.87
71126;BME280;58785;55.566;38.058;2023-07-20T02:17:30;98953.47;;;14.30;78.65
71126;BME280;58785;55.566;38.058;2023-07-20T02:20:16;98946.72;;;14.34;78.65
71126;BME280;58785;55.566;38.058;2023-07-20T02:22:42;98949.81;;;14.37;78.31
71126;BME280;58785;55.566;38.058;2023-07-20T02:25:08;98944.84;;;14.41;78.31
71126;BME280;58785;55.566;38.058;2023-07-20T02:27:34;98951.69;;;14.44;78.69
71126;BME280;58785;55.566;38.058;2023-07-20T02:30:00;98947.16;;;14.44;77.92
71126;BME280;58785;55.566;38.058;2023-07-20T02:32:27;98945.34;;;14.51;78.10
71126;BME280;58785;55.566;38.058;2023-07-20T02:34:53;98952.81;;;14.56;77.94
71126;BME280;58785;55.566;38.058;2023-07-20T02:37:19;98960.66;;;14.64;77.87
71126;BME280;58785;55.566;38.058;2023-07-20T02:39:45;98950.56;;;14.73;77.98
71126;BME280;58785;55.566;38.058;2023-07-20T02:42:11;98954.13;;;14.86;77.54
71126;BME280;58785;55.566;38.058;2023-07-20T02:44:36;98957.47;;;15.15;77.27
71126;BME280;58785;55.566;38.058;2023-07-20T02:47:02;98959.72;;;15.51;76.49
71126;BME280;58785;55.566;38.058;2023-07-20T02:49:28;98960.53;;;15.91;75.57
71126;BME280;58785;55.566;38.058;2023-07-20T02:51:54;98961.69;;;16.28;74.90
71126;BME280;58785;55.566;38.058;2023-07-20T02:54:21;98961.16;;;16.58;74.56
71126;BME280;58785;55.566;38.058;2023-07-20T02:56:47;98962.91;;;16.84;73.89
71126;BME280;58785;55.566;38.058;2023-07-20T02:59:12;98966.44;;;17.16;73.37
71126;BME280;58785;55.566;38.058;2023-07-20T03:01:38;98960.19;;;17.47;72.24
71126;BME280;58785;55.566;38.058;2023-07-20T03:04:04;98962.88;;;17.72;71.88
71126;BME280;58785;55.566;38.058;2023-07-20T03:06:30;98962.63;;;17.98;70.93
71126;BME280;58785;55.566;38.058;2023-07-20T03:08:55;98968.63;;;18.19;70.46
71126;BME280;58785;55.566;38.058;2023-07-20T03:11:22;98979.81;;;18.41;70.05
71126;BME280;58785;55.566;38.058;2023-07-20T03:13:47;98971.69;;;18.59;69.54
71126;BME280;58785;55.566;38.058;2023-07-20T03:16:15;98978.28;;;18.81;68.80
71126;BME280;58785;55.566;38.058;2023-07-20T03:18:41;98971.88;;;18.94;68.55
71126;BME280;58785;55.566;38.058;2023-07-20T03:21:08;98977.91;;;19.08;68.00
71126;BME280;58785;55.566;38.058;2023-07-20T03:23:36;98972.06;;;19.22;67.57
71126;BME280;58785;55.566;38.058;2023-07-20T03:26:02;98970.50;;;19.45;67.08
71126;BME280;58785;55.566;38.058;2023-07-20T03:28:28;98983.09;;;19.63;66.34
71126;BME280;58785;55.566;38.058;2023-07-20T03:30:54;98976.19;;;19.78;65.88
71126;BME280;58785;55.566;38.058;2023-07-20T03:33:22;98981.81;;;19.89;65.43
71126;BME280;58785;55.566;38.058;2023-07-20T03:35:48;98985.09;;;20.02;65.11
71126;BME280;58785;55.566;38.058;2023-07-20T03:38:13;98980.41;;;20.09;64.77
71126;BME280;58785;55.566;38.058;2023-07-20T03:40:39;98974.63;;;20.18;64.50
71126;BME280;58785;55.566;38.058;2023-07-20T03:43:04;98974.50;;;20.36;63.92
71126;BME280;58785;55.566;38.058;2023-07-20T03:45:30;98972.28;;;20.45;63.62
71126;BME280;58785;55.566;38.058;2023-07-20T03:47:57;98974.94;;;20.56;63.30
71126;BME280;58785;55.566;38.058;2023-07-20T03:50:23;98977.03;;;20.66;62.95
71126;BME280;58785;55.566;38.058;2023-07-20T03:52:48;98977.47;;;20.75;62.41
71126;BME280;58785;55.566;38.058;2023-07-20T03:55:15;98980.03;;;20.81;62.15
71126;BME280;58785;55.566;38.058;2023-07-20T03:57:40;98978.56;;;20.90;61.75
71126;BME280;58785;55.566;38.058;2023-07-20T04:00:07;98979.38;;;20.91;61.70
71126;BME280;58785;55.566;38.058;2023-07-20T04:02:33;98986.94;;;20.89;61.40
71126;BME280;58785;55.566;38.058;2023-07-20T04:04:59;98986.69;;;20.90;61.05
71126;BME280;58785;55.566;38.058;2023-07-20T04:07:24;98987.72;;;21.01;61.06
71126;BME280;58785;55.566;38.058;2023-07-20T04:09:50;98984.22;;;21.17;60.84
71126;BME280;58785;55.566;38.058;2023-07-20T04:12:16;98982.84;;;21.15;60.50
71126;BME280;58785;55.566;38.058;2023-07-20T04:14:42;98982.59;;;21.16;60.49
71126;BME280;58785;55.566;38.058;2023-07-20T04:17:08;98980.53;;;21.23;60.54
71126;BME280;58785;55.566;38.058;2023-07-20T04:19:33;98983.03;;;21.42;59.92
71126;BME280;58785;55.566;38.058;2023-07-20T04:21:59;98982.56;;;21.45;59.62
71126;BME280;58785;55.566;38.058;2023-07-20T04:24:25;98990.38;;;21.58;59.33
71126;BME280;58785;55.566;38.058;2023-07-20T04:26:51;98991.63;;;21.67;59.33
71126;BME280;58785;55.566;38.058;2023-07-20T04:29:16;98987.91;;;21.73;58.90
71126;BME280;58785;55.566;38.058;2023-07-20T04:31:42;98991.38;;;21.86;58.81
71126;BME280;58785;55.566;38.058;2023-07-20T04:34:08;98991.06;;;22.21;58.26
71126;BME280;58785;55.566;38.058;2023-07-20T04:36:33;98986.34;;;22.33;57.75
71126;BME280;58785;55.566;38.058;2023-07-20T04:38:59;98991.59;;;22.40;57.50
71126;BME280;58785;55.566;38.058;2023-07-20T04:41:25;98997.41;;;22.26;58.11
71126;BME280;58785;55.566;38.058;2023-07-20T04:43:50;98999.97;;;21.99;58.66
71126;BME280;58785;55.566;38.058;2023-07-20T04:46:16;98997.94;;;21.73;59.38
71126;BME280;58785;55.566;38.058;2023-07-20T04:48:45;98998.84;;;21.45;59.62
71126;BME280;58785;55.566;38.058;2023-07-20T04:51:11;98996.78;;;21.23;60.00
71126;BME280;58785;55.566;38.058;2023-07-20T04:53:37;99000.88;;;21.09;60.36
71126;BME280;58785;55.566;38.058;2023-07-20T04:56:02;99004.97;;;20.95;60.69
71126;BME280;58785;55.566;38.058;2023-07-20T04:58:28;99000.69;;;20.99;60.67
71126;BME280;58785;55.566;38.058;2023-07-20T05:00:54;99008.19;;;21.37;60.04
71126;BME280;58785;55.566;38.058;2023-07-20T05:03:19;99008.38;;;21.81;59.05
71126;BME280;58785;55.566;38.058;2023-07-20T05:05:47;98995.44;;;22.22;58.39
71126;BME280;58785;55.566;38.058;2023-07-20T05:08:13;99001.78;;;22.49;57.68
71126;BME280;58785;55.566;38.058;2023-07-20T05:10:39;99003.16;;;22.52;57.29
71126;BME280;58785;55.566;38.058;2023-07-20T05:13:05;98994.06;;;22.41;57.38
71126;BME280;58785;55.566;38.058;2023-07-20T05:15:33;99004.66;;;22.21;58.34
71126;BME280;58785;55.566;38.058;2023-07-20T05:17:59;99006.66;;;22.08;58.35
71126;BME280;58785;55.566;38.058;2023-07-20T05:20:25;98998.34;;;22.15;58.42
71126;BME280;58785;55.566;38.058;2023-07-20T05:22:50;98996.19;;;22.17;58.45
71126;BME280;58785;55.566;38.058;2023-07-20T05:25:23;99000.44;;;22.30;58.38
71126;BME280;58785;55.566;38.058;2023-07-20T05:27:55;99002.91;;;22.53;57.76
71126;BME280;58785;55.566;38.058;2023-07-20T05:30:21;99001.22;;;22.69;57.29
71126;BME280;58785;55.566;38.058;2023-07-20T05:32:47;99004.13;;;22.84;56.55
71126;BME280;58785;55.566;38.058;2023-07-20T05:35:17;98993.16;;;23.01;56.41
71126;BME280;58785;55.566;38.058;2023-07-20T05:37:45;98999.47;;;23.34;55.92
71126;BME280;58785;55.566;38.058;2023-07-20T05:40:11;99008.06;;;23.47;55.57
71126;BME280;58785;55.566;38.058;2023-07-20T05:42:38;99002.97;;;23.56;55.81
71126;BME280;58785;55.566;38.058;2023-07-20T05:45:05;98998.22;;;23.73;55.71
71126;BME280;58785;55.566;38.058;2023-07-20T05:47:33;98999.97;;;23.90;55.07
71126;BME280;58785;55.566;38.058;2023-07-20T05:49:59;98994.88;;;24.03;54.89
71126;BME280;58785;55.566;38.058;2023-07-20T05:52:25;98991.63;;;24.01;54.42
71126;BME280;58785;55.566;38.058;2023-07-20T05:54:51;98990.50;;;23.97;54.37
71126;BME280;58785;55.566;38.058;2023-07-20T05:57:17;99000.66;;;24.07;54.61
71126;BME280;58785;55.566;38.058;2023-07-20T05:59:42;99003.38;;;24.12;54.65
71126;BME280;58785;55.566;38.058;2023-07-20T06:02:10;98998.25;;;24.16;54.25
71126;BME280;58785;55.566;38.058;2023-07-20T06:04:36;98998.31;;;24.26;54.01
71126;BME280;58785;55.566;38.058;2023-07-20T06:07:02;98995.06;;;24.29;53.90
71126;BME280;58785;55.566;38.058;2023-07-20T06:09:28;99003.09;;;24.46;53.18
71126;BME280;58785;55.566;38.058;2023-07-20T06:11:55;99005.53;;;24.47;52.99
71126;BME280;58785;55.566;38.058;2023-07-20T06:14:22;98998.19;;;24.53;52.99
71126;BME280;58785;55.566;38.058;2023-07-20T06:16:47;99000.91;;;24.53;52.56
71126;BME280;58785;55.566;38.058;2023-07-20T06:19:13;99006.31;;;24.43;52.48
71126;BME280;58785;55.566;38.058;2023-07-20T06:21:39;99007.94;;;24.39;51.86
71126;BME280;58785;55.566;38.058;2023-07-20T06:24:05;99009.84;;;24.43;51.67
71126;BME280;58785;55.566;38.058;2023-07-20T06:26:31;99005.28;;;24.54;51.71
71126;BME280;58785;55.566;38.058;2023-07-20T06:29:03;99002.09;;;24.67;51.82
71126;BME280;58785;55.566;38.058;2023-07-20T06:31:29;99005.97;;;24.86;51.39
71126;BME280;58785;55.566;38.058;2023-07-20T06:33:54;99012.78;;;24.89;50.94
71126;BME280;58785;55.566;38.058;2023-07-20T06:36:20;98999.97;;;24.89;51.12
71126;BME280;58785;55.566;38.058;2023-07-20T06:38:46;99010.34;;;24.87;51.55
71126;BME280;58785;55.566;38.058;2023-07-20T06:41:11;99012.72;;;24.69;51.91
71126;BME280;58785;55.566;38.058;2023-07-20T06:43:37;99019.00;;;24.74;51.40
71126;BME280;58785;55.566;38.058;2023-07-20T06:46:03;99015.94;;;24.60;50.90
71126;BME280;58785;55.566;38.058;2023-07-20T06:48:29;99015.63;;;24.52;50.72
71126;BME280;58785;55.566;38.058;2023-07-20T06:50:55;99007.53;;;24.67;51.02
71126;BME280;58785;55.566;38.058;2023-07-20T06:53:21;99009.50;;;24.87;50.75
71126;BME280;58785;55.566;38.058;2023-07-20T06:55:47;99013.66;;;25.05;50.34
71126;BME280;58785;55.566;38.058;2023-07-20T06:58:13;99015.59;;;25.09;50.10
71126;BME280;58785;55.566;38.058;2023-07-20T07:00:39;99017.16;;;24.95;49.73
71126;BME280;58785;55.566;38.058;2023-07-20T07:03:04;99012.53;;;24.96;49.61
71126;BME280;58785;55.566;38.058;2023-07-20T07:05:30;99014.69;;;24.93;49.43
71126;BME280;58785;55.566;38.058;2023-07-20T07:07:56;99010.63;;;25.01;49.55
71126;BME280;58785;55.566;38.058;2023-07-20T07:10:22;99019.66;;;25.02;48.87
71126;BME280;58785;55.566;38.058;2023-07-20T07:12:47;99013.59;;;24.89;49.01
71126;BME280;58785;55.566;38.058;2023-07-20T07:15:13;99016.03;;;24.76;49.56
71126;BME280;58785;55.566;38.058;2023-07-20T07:17:39;99017.13;;;24.80;49.29
71126;BME280;58785;55.566;38.058;2023-07-20T07:20:05;99016.22;;;24.64;49.41
71126;BME280;58785;55.566;38.058;2023-07-20T07:22:32;99033.66;;;24.63;49.11
71126;BME280;58785;55.566;38.058;2023-07-20T07:24:58;99018.72;;;24.71;49.13
71126;BME280;58785;55.566;38.058;2023-07-20T07:27:24;99028.00;;;24.75;48.61
71126;BME280;58785;55.566;38.058;2023-07-20T07:29:49;99032.09;;;24.72;48.08
71126;BME280;58785;55.566;38.058;2023-07-20T07:32:15;99023.63;;;24.74;47.96
71126;BME280;58785;55.566;38.058;2023-07-20T07:34:44;99024.47;;;24.84;47.85
71126;BME280;58785;55.566;38.058;2023-07-20T07:37:12;99026.97;;;24.91;47.86
71126;BME280;58785;55.566;38.058;2023-07-20T07:39:38;99030.63;;;25.07;48.18
71126;BME280;58785;55.566;38.058;2023-07-20T07:42:05;99023.78;;;25.14;48.21
71126;BME280;58785;55.566;38.058;2023-07-20T07:44:31;99026.81;;;25.18;47.46
71126;BME280;58785;55.566;38.058;2023-07-20T07:46:57;99029.25;;;25.25;47.93
71126;BME280;58785;55.566;38.058;2023-07-20T07:49:22;99018.94;;;25.27;47.18
71126;BME280;58785;55.566;38.058;2023-07-20T07:51:48;99014.66;;;24.83;47.58
71126;BME280;58785;55.566;38.058;2023-07-20T07:54:14;99032.13;;;24.82;48.18
71126;BME280;58785;55.566;38.058;2023-07-20T07:56:40;99029.66;;;24.76;48.32
71126;BME280;58785;55.566;38.058;2023-07-20T07:59:06;99029.91;;;24.69;47.96
71126;BME280;58785;55.566;38.058;2023-07-20T08:01:32;99022.00;;;24.73;47.61
71126;BME280;58785;55.566;38.058;2023-07-20T08:03:58;99031.59;;;24.85;47.62
71126;BME280;58785;55.566;38.058;2023-07-20T08:06:23;99025.63;;;24.99;47.20
71126;BME280;58785;55.566;38.058;2023-07-20T08:08:50;99021.31;;;25.03;46.93
71126;BME280;58785;55.566;38.058;2023-07-20T08:11:16;99032.53;;;25.06;47.00
71126;BME280;58785;55.566;38.058;2023-07-20T08:13:43;99031.69;;;25.11;47.21
71126;BME280;58785;55.566;38.058;2023-07-20T08:16:09;99034.97;;;25.08;46.94
71126;BME280;58785;55.566;38.058;2023-07-20T08:18:35;99016.97;;;25.12;46.73
71126;BME280;58785;55.566;38.058;2023-07-20T08:21:00;99038.56;;;25.29;46.81
71126;BME280;58785;55.566;38.058;2023-07-20T08:23:26;99011.53;;;25.22;46.81
71126;BME280;58785;55.566;38.058;2023-07-20T08:25:53;99032.28;;;25.18;46.91
71126;BME280;58785;55.566;38.058;2023-07-20T08:28:19;99039.34;;;25.14;47.09
71126;BME280;58785;55.566;38.058;2023-07-20T08:30:47;99030.38;;;25.18;46.88
71126;BME280;58785;55.566;38.058;2023-07-20T08:33:14;99039.66;;;25.33;46.87
71126;BME280;58785;55.566;38.058;2023-07-20T08:35:41;99039.91;;;25.21;46.49
71126;BME280;58785;55.566;38.058;2023-07-20T08:38:07;99034.03;;;24.77;46.63
71126;BME280;58785;55.566;38.058;2023-07-20T08:40:39;99042.69;;;24.21;47.47
71126;BME280;58785;55.566;38.058;2023-07-20T08:43:05;99047.50;;;24.09;48.28
71126;BME280;58785;55.566;38.058;2023-07-20T08:45:33;99032.66;;;24.27;47.68
71126;BME280;58785;55.566;38.058;2023-07-20T08:48:01;99029.44;;;24.35;47.50
71126;BME280;58785;55.566;38.058;2023-07-20T08:50:30;99042.94;;;24.20;48.00
71126;BME280;58785;55.566;38.058;2023-07-20T08:52:57;99043.00;;;24.30;48.50
71126;BME280;58785;55.566;38.058;2023-07-20T08:55:25;99041.19;;;24.41;48.20
71126;BME280;58785;55.566;38.058;2023-07-20T08:57:57;99037.72;;;24.50;48.26
71126;BME280;58785;55.566;38.058;2023-07-20T09:00:24;99031.09;;;24.36;48.17
71126;BME280;58785;55.566;38.058;2023-07-20T09:02:52;99030.84;;;24.38;48.67
71126;BME280;58785;55.566;38.058;2023-07-20T09:05:18;99024.84;;;24.41;48.69
71126;BME280;58785;55.566;38.058;2023-07-20T09:07:45;99036.88;;;24.50;48.37
71126;BME280;58785;55.566;38.058;2023-07-20T09:10:10;99027.56;;;24.41;48.61
71126;BME280;58785;55.566;38.058;2023-07-20T09:12:42;99036.00;;;24.39;48.64
71126;BME280;58785;55.566;38.058;2023-07-20T09:15:10;99032.53;;;24.12;49.22
71126;BME280;58785;55.566;38.058;2023-07-20T09:17:36;99047.81;;;23.80;49.40
71126;BME280;58785;55.566;38.058;2023-07-20T09:20:07;99041.50;;;23.75;49.84
71126;BME280;58785;55.566;38.058;2023-07-20T09:22:36;99045.47;;;23.94;49.51
71126;BME280;58785;55.566;38.058;2023-07-20T09:25:10;99051.06;;;24.15;49.55
71126;BME280;58785;55.566;38.058;2023-07-20T09:27:38;99033.19;;;24.29;49.16
71126;BME280;58785;55.566;38.058;2023-07-20T09:30:04;99037.66;;;24.40;48.99
71126;BME280;58785;55.566;38.058;2023-07-20T09:32:45;99037.75;;;24.18;49.01
71126;BME280;58785;55.566;38.058;2023-07-20T09:35:15;99043.56;;;23.95;49.34
71126;BME280;58785;55.566;38.058;2023-07-20T09:37:50;99057.06;;;24.12;50.14
71126;BME280;58785;55.566;38.058;2023-07-20T09:40:20;99053.97;;;24.35;49.96
71126;BME280;58785;55.566;38.058;2023-07-20T09:42:46;99054.88;;;24.46;50.12
71126;BME280;58785;55.566;38.058;2023-07-20T09:45:12;99053.78;;;24.47;51.09
71126;BME280;58785;55.566;38.058;2023-07-20T09:47:38;99046.75;;;24.56;50.91
71126;BME280;58785;55.566;38.058;2023-07-20T09:50:05;99053.00;;;24.56;51.39
71126;BME280;58785;55.566;38.058;2023-07-20T09:52:39;99047.63;;;24.29;51.37
71126;BME280;58785;55.566;38.058;2023-07-20T09:55:09;99045.72;;;23.88;51.92
71126;BME280;58785;55.566;38.058;2023-07-20T09:57:36;99064.69;;;23.50;52.19
71126;BME280;58785;55.566;38.058;2023-07-20T10:00:04;99056.97;;;23.15;52.91
71126;BME280;58785;55.566;38.058;2023-07-20T10:02:42;99067.13;;;22.81;54.25
71126;BME280;58785;55.566;38.058;2023-07-20T10:05:12;99076.28;;;22.53;56.22
71126;BME280;58785;55.566;38.058;2023-07-20T10:07:43;99076.34;;;22.20;58.03
71126;BME280;58785;55.566;38.058;2023-07-20T10:10:11;99086.84;;;21.99;58.68
71126;BME280;58785;55.566;38.058;2023-07-20T10:12:40;99080.25;;;21.78;59.72
71126;BME280;58785;55.566;38.058;2023-07-20T10:15:20;99087.66;;;21.66;60.66
71126;BME280;58785;55.566;38.058;2023-07-20T10:18:07;99079.38;;;21.44;61.68
71126;BME280;58785;55.566;38.058;2023-07-20T10:20:36;99081.47;;;21.26;61.90
71126;BME280;58785;55.566;38.058;2023-07-20T10:23:04;99068.59;;;21.21;62.36
71126;BME280;58785;55.566;38.058;2023-07-20T10:25:31;99061.31;;;21.50;62.46
71126;BME280;58785;55.566;38.058;2023-07-20T10:27:58;99057.06;;;21.88;62.40
71126;BME280;58785;55.566;38.058;2023-07-20T10:30:25;99059.88;;;22.09;61.65
71126;BME280;58785;55.566;38.058;2023-07-20T10:32:52;99055.13;;;22.17;61.40
71126;BME280;58785;55.566;38.058;2023-07-20T10:35:18;99053.69;;;22.14;61.25
71126;BME280;58785;55.566;38.058;2023-07-20T10:37:54;99046.69;;;22.01;60.95
71126;BME280;58785;55.566;38.058;2023-07-20T10:40:33;99040.38;;;21.79;61.87
71126;BME280;58785;55.566;38.058;2023-07-20T10:43:02;99046.34;;;21.64;62.16
71126;BME280;58785;55.566;38.058;2023-07-20T10:48:23;99057.38;;;21.58;62.99
71126;BME280;58785;55.566;38.058;2023-07-20T10:51:12;99055.25;;;21.60;63.21
71126;BME280;58785;55.566;38.058;2023-07-20T10:53:42;99066.41;;;21.63;62.83
71126;BME280;58785;55.566;38.058;2023-07-20T10:56:20;99077.44;;;21.73;63.11
71126;BME280;58785;55.566;38.058;2023-07-20T10:58:46;99084.34;;;21.64;62.48
71126;BME280;58785;55.566;38.058;2023-07-20T11:01:18;99081.22;;;21.56;63.00
71126;BME280;58785;55.566;38.058;2023-07-20T11:03:49;99072.56;;;21.42;62.88
71126;BME280;58785;55.566;38.058;2023-07-20T11:09:09;99068.59;;;21.33;63.29
71126;BME280;58785;55.566;38.058;2023-07-20T11:11:38;99065.78;;;21.28;63.48
71126;BME280;58785;55.566;38.058;2023-07-20T11:14:09;99067.38;;;21.40;63.75
71126;BME280;58785;55.566;38.058;2023-07-20T11:16:43;99056.22;;;21.53;64.07
71126;BME280;58785;55.566;38.058;2023-07-20T11:19:29;99050.22;;;21.51;63.76
71126;BME280;58785;55.566;38.058;2023-07-20T11:21:56;99058.09;;;21.53;63.40
71126;BME280;58785;55.566;38.058;2023-07-20T11:24:23;99056.47;;;21.52;63.13
71126;BME280;58785;55.566;38.058;2023-07-20T11:26:54;99060.00;;;21.52;62.98
71126;BME280;58785;55.566;38.058;2023-07-20T11:29:41;99056.38;;;21.64;62.49
71126;BME280;58785;55.566;38.058;2023-07-20T11:32:08;99063.13;;;21.61;62.61
71126;BME280;58785;55.566;38.058;2023-07-20T11:34:59;99060.09;;;21.58;62.24
71126;BME280;58785;55.566;38.058;2023-07-20T11:37:48;99077.06;;;21.65;62.37
71126;BME280;58785;55.566;38.058;2023-07-20T11:40:13;99075.41;;;21.80;62.18
71126;BME280;58785;55.566;38.058;2023-07-20T11:42:40;99066.53;;;21.85;60.84
71126;BME280;58785;55.566;38.058;2023-07-20T11:45:06;99072.53;;;21.87;60.78
71126;BME280;58785;55.566;38.058;2023-07-20T11:47:32;99065.56;;;22.08;60.84
71126;BME280;58785;55.566;38.058;2023-07-20T11:50:03;99062.41;;;22.33;59.71
71126;BME280;58785;55.566;38.058;2023-07-20T11:52:30;99067.50;;;22.46;58.87
71126;BME280;58785;55.566;38.058;2023-07-20T11:54:57;99061.31;;;22.34;58.91
71126;BME280;58785;55.566;38.058;2023-07-20T11:57:23;99075.25;;;22.21;58.77
71126;BME280;58785;55.566;38.058;2023-07-20T12:00:01;99085.78;;;22.00;58.90
71126;BME280;58785;55.566;38.058;2023-07-20T12:02:37;99099.34;;;21.84;58.99
71126;BME280;58785;55.566;38.058;2023-07-20T12:05:06;99097.25;;;21.74;59.68
71126;BME280;58785;55.566;38.058;2023-07-20T12:07:35;99082.47;;;21.65;60.36
71126;BME280;58785;55.566;38.058;2023-07-20T12:10:10;99085.84;;;21.72;60.56
71126;BME280;58785;55.566;38.058;2023-07-20T12:12:41;99085.94;;;21.77;60.97
71126;BME280;58785;55.566;38.058;2023-07-20T12:15:14;99094.72;;;21.84;60.68
71126;BME280;58785;55.566;38.058;2023-07-20T12:17:46;99083.56;;;21.97;60.45
71126;BME280;58785;55.566;38.058;2023-07-20T12:20:28;99087.28;;;22.08;59.54
71126;BME280;58785;55.566;38.058;2023-07-20T12:22:57;99091.16;;;22.12;59.53
71126;BME280;58785;55.566;38.058;2023-07-20T12:25:44;99066.53;;;22.02;59.44
71126;BME280;58785;55.566;38.058;2023-07-20T12:28:18;99075.44;;;22.14;58.56
71126;BME280;58785;55.566;38.058;2023-07-20T12:30:46;99079.06;;;22.20;58.93
71126;BME280;58785;55.566;38.058;2023-07-20T12:33:13;99066.81;;;22.17;58.74
71126;BME280;58785;55.566;38.058;2023-07-20T12:35:41;99068.03;;;22.09;58.73
71126;BME280;58785;55.566;38.058;2023-07-20T12:38:06;99075.84;;;22.06;58.54
71126;BME280;58785;55.566;38.058;2023-07-20T12:40:33;99082.16;;;21.95;58.02
71126;BME280;58785;55.566;38.058;2023-07-20T12:42:59;99097.25;;;21.74;58.23
71126;BME280;58785;55.566;38.058;2023-07-20T12:45:25;99104.53;;;21.40;59.25
71126;BME280;58785;55.566;38.058;2023-07-20T12:47:50;99106.47;;;21.16;60.13
71126;BME280;58785;55.566;38.058;2023-07-20T12:50:16;99100.03;;;21.05;61.09
71126;BME280;58785;55.566;38.058;2023-07-20T12:52:42;99091.41;;;21.08;61.65
71126;BME280;58785;55.566;38.058;2023-07-20T12:55:09;99101.50;;;21.24;62.32
71126;BME280;58785;55.566;38.058;2023-07-20T12:57:36;99093.03;;;21.49;62.39
71126;BME280;58785;55.566;38.058;2023-07-20T13:00:04;99087.22;;;21.74;62.17
71126;BME280;58785;55.566;38.058;2023-07-20T13:02:34;99097.97;;;21.98;61.95
71126;BME280;58785;55.566;38.058;2023-07-20T13:05:00;99101.94;;;22.07;61.52